sensor_id;sensor_type;location;lat;lon;timestamp;P1;durP1;ratioP1;P2;durP2;ratioP2
5785;SDS011;2919;48.630;9.000;2023-04-06T00:01:36;8.83;;;2.67;;
5785;SDS011;2919;48.630;9.000;2023-04-06T00:04:02;4.53;;;2.90;;
5785;SDS011;2919;48.630;9.000;2023-04-06T00:06:28;7.77;;;3.23;;
5785;SDS011;2919;48.630;9.000;2023-04-06T00:08:53;5.33;;;3.33;;
5785;SDS011;2919;48.630;9.000;2023-04-06T00:11:20;7.40;;;3.73;;
5785;SDS011;2919;48.630;9.000;2023-04-06T00:13:46;8.80;;;3.80;;
5785;SDS011;2919;48.630;9.000;2023-04-06T00:16:12;7.33;;;2.77;;
5785;SDS011;2919;48.630;9.000;2023-04-06T00:18:39;9.10;;;3.97;;
5785;SDS011;2919;48.630;9.000;2023-04-06T00:21:05;12.87;;;3.80;;
5785;SDS011;2919;48.630;9.000;2023-04-06T00:23:30;7.20;;;3.77;;
5785;SDS011;2919;48.630;9.000;2023-04-06T00:25:56;7.90;;;2.90;;
5785;SDS011;2919;48.630;9.000;2023-04-06T00:28:22;6.60;;;3.70;;
5785;SDS011;2919;48.630;9.000;2023-04-06T00:30:51;6.20;;;3.47;;
5785;SDS011;2919;48.630;9.000;2023-04-06T00:33:19;10.63;;;4.30;;
5785;SDS011;2919;48.630;9.000;2023-04-06T00:35:45;5.17;;;2.90;;
5785;SDS011;2919;48.630;9.000;2023-04-06T00:38:11;8.60;;;3.00;;
5785;SDS011;2919;48.630;9.000;2023-04-06T00:40:37;17.30;;;3.60;;
5785;SDS011;2919;48.630;9.000;2023-04-06T00:43:04;5.83;;;2.97;;
5785;SDS011;2919;48.630;9.000;2023-04-06T00:45:31;9.00;;;3.93;;
5785;SDS011;2919;48.630;9.000;2023-04-06T00:47:57;5.03;;;2.60;;
5785;SDS011;2919;48.630;9.000;2023-04-06T00:50:23;9.57;;;3.00;;
5785;SDS011;2919;48.630;9.000;2023-04-06T00:52:48;8.43;;;3.50;;
5785;SDS011;2919;48.630;9.000;2023-04-06T00:55:14;14.90;;;4.00;;
5785;SDS011;2919;48.630;9.000;2023-04-06T00:57:40;5.10;;;2.83;;
5785;SDS011;2919;48.630;9.000;2023-04-06T01:00:06;3.93;;;2.53;;
5785;SDS011;2919;48.630;9.000;2023-04-06T01:02:32;5.10;;;2.80;;
5785;SDS011;2919;48.630;9.000;2023-04-06T01:04:57;5.77;;;2.97;;
5785;SDS011;2919;48.630;9.000;2023-04-06T01:07:23;7.17;;;3.57;;
5785;SDS011;2919;48.630;9.000;2023-04-06T01:09:49;12.77;;;4.30;;
5785;SDS011;2919;48.630;9.000;2023-04-06T01:12:17;6.00;;;3.47;;
5785;SDS011;2919;48.630;9.000;2023-04-06T01:14:43;12.63;;;3.37;;
5785;SDS011;2919;48.630;9.000;2023-04-06T01:17:08;6.27;;;3.33;;
5785;SDS011;2919;48.630;9.000;2023-04-06T01:19:34;5.80;;;3.80;;
5785;SDS011;2919;48.630;9.000;2023-04-06T01:22:01;6.13;;;2.87;;
5785;SDS011;2919;48.630;9.000;2023-04-06T01:24:26;4.97;;;3.40;;
5785;SDS011;2919;48.630;9.000;2023-04-06T01:26:52;8.63;;;2.83;;
5785;SDS011;2919;48.630;9.000;2023-04-06T01:29:17;5.50;;;2.93;;
5785;SDS011;2919;48.630;9.000;2023-04-06T01:31:43;6.00;;;3.77;;
5785;SDS011;2919;48.630;9.000;2023-04-06T01:34:09;6.80;;;3.50;;
5785;SDS011;2919;48.630;9.000;2023-04-06T01:36:35;10.03;;;5.13;;
5785;SDS011;2919;48.630;9.000;2023-04-06T01:39:00;18.97;;;3.47;;
5785;SDS011;2919;48.630;9.000;2023-04-06T01:41:26;8.17;;;3.27;;
5785;SDS011;2919;48.630;9.000;2023-04-06T01:43:52;9.10;;;3.20;;
5785;SDS011;2919;48.630;9.000;2023-04-06T01:46:19;8.17;;;3.03;;
5785;SDS011;2919;48.630;9.000;2023-04-06T01:48:45;7.40;;;3.50;;
5785;SDS011;2919;48.630;9.000;2023-04-06T01:51:11;8.00;;;3.60;;
5785;SDS011;2919;48.630;9.000;2023-04-06T01:53:36;6.10;;;3.40;;
5785;SDS011;2919;48.630;9.000;2023-04-06T01:56:02;5.70;;;3.00;;
5785;SDS011;2919;48.630;9.000;2023-04-06T01:58:28;5.90;;;3.60;;
5785;SDS011;2919;48.630;9.000;2023-04-06T02:00:53;5.50;;;3.53;;
5785;SDS011;2919;48.630;9.000;2023-04-06T02:03:19;9.03;;;3.20;;
5785;SDS011;2919;48.630;9.000;2023-04-06T02:05:45;4.73;;;3.00;;
5785;SDS011;2919;48.630;9.000;2023-04-06T02:08:10;7.07;;;3.30;;
5785;SDS011;2919;48.630;9.000;2023-04-06T02:10:36;6.00;;;3.53;;
5785;SDS011;2919;48.630;9.000;2023-04-06T02:13:02;6.03;;;2.77;;
5785;SDS011;2919;48.630;9.000;2023-04-06T02:15:27;9.67;;;3.90;;
5785;SDS011;2919;48.630;9.000;2023-04-06T02:17:53;7.07;;;3.30;;
5785;SDS011;2919;48.630;9.000;2023-04-06T02:20:19;6.03;;;2.87;;
5785;SDS011;2919;48.630;9.000;2023-04-06T02:22:45;5.07;;;2.70;;
5785;SDS011;2919;48.630;9.000;2023-04-06T02:25:10;5.43;;;3.23;;
5785;SDS011;2919;48.630;9.000;2023-04-06T02:27:36;6.67;;;3.63;;
5785;SDS011;2919;48.630;9.000;2023-04-06T02:30:02;6.17;;;3.40;;
5785;SDS011;2919;48.630;9.000;2023-04-06T02:32:29;7.80;;;3.80;;
5785;SDS011;2919;48.630;9.000;2023-04-06T02:34:54;10.47;;;4.33;;
5785;SDS011;2919;48.630;9.000;2023-04-06T02:37:20;8.87;;;4.20;;
5785;SDS011;2919;48.630;9.000;2023-04-06T02:39:46;11.57;;;3.20;;
5785;SDS011;2919;48.630;9.000;2023-04-06T02:42:12;7.40;;;3.17;;
5785;SDS011;2919;48.630;9.000;2023-04-06T02:44:40;9.27;;;4.00;;
5785;SDS011;2919;48.630;9.000;2023-04-06T02:47:06;8.77;;;3.60;;
5785;SDS011;2919;48.630;9.000;2023-04-06T02:49:32;8.97;;;3.67;;
5785;SDS011;2919;48.630;9.000;2023-04-06T02:51:57;11.03;;;4.27;;
5785;SDS011;2919;48.630;9.000;2023-04-06T02:54:23;5.73;;;3.17;;
5785;SDS011;2919;48.630;9.000;2023-04-06T02:56:48;4.27;;;2.60;;
5785;SDS011;2919;48.630;9.000;2023-04-06T02:59:14;10.70;;;3.60;;
5785;SDS011;2919;48.630;9.000;2023-04-06T03:01:40;7.03;;;3.70;;
5785;SDS011;2919;48.630;9.000;2023-04-06T03:04:05;9.90;;;4.60;;
5785;SDS011;2919;48.630;9.000;2023-04-06T03:06:31;7.07;;;4.17;;
5785;SDS011;2919;48.630;9.000;2023-04-06T03:08:56;9.43;;;4.40;;
5785;SDS011;2919;48.630;9.000;2023-04-06T03:11:22;16.10;;;3.70;;
5785;SDS011;2919;48.630;9.000;2023-04-06T03:13:48;9.70;;;4.20;;
5785;SDS011;2919;48.630;9.000;2023-04-06T03:16:13;5.50;;;3.53;;
5785;SDS011;2919;48.630;9.000;2023-04-06T03:18:39;5.47;;;2.57;;
5785;SDS011;2919;48.630;9.000;2023-04-06T03:21:05;6.70;;;3.53;;
5785;SDS011;2919;48.630;9.000;2023-04-06T03:23:30;5.20;;;3.17;;
5785;SDS011;2919;48.630;9.000;2023-04-06T03:25:56;9.40;;;4.33;;
5785;SDS011;2919;48.630;9.000;2023-04-06T03:28:22;7.70;;;4.57;;
5785;SDS011;2919;48.630;9.000;2023-04-06T03:30:48;10.37;;;5.50;;
5785;SDS011;2919;48.630;9.000;2023-04-06T03:33:14;8.50;;;4.47;;
5785;SDS011;2919;48.630;9.000;2023-04-06T03:35:40;11.37;;;4.50;;
5785;SDS011;2919;48.630;9.000;2023-04-06T03:38:06;8.37;;;4.87;;
5785;SDS011;2919;48.630;9.000;2023-04-06T03:40:31;11.40;;;4.00;;
5785;SDS011;2919;48.630;9.000;2023-04-06T03:42:57;6.10;;;3.90;;
5785;SDS011;2919;48.630;9.000;2023-04-06T03:45:23;9.73;;;4.40;;
5785;SDS011;2919;48.630;9.000;2023-04-06T03:47:48;9.53;;;4.10;;
5785;SDS011;2919;48.630;9.000;2023-04-06T03:50:14;10.87;;;4.00;;
5785;SDS011;2919;48.630;9.000;2023-04-06T03:52:40;9.67;;;5.20;;
5785;SDS011;2919;48.630;9.000;2023-04-06T03:55:06;7.90;;;4.00;;
5785;SDS011;2919;48.630;9.000;2023-04-06T03:57:32;20.23;;;4.70;;
5785;SDS011;2919;48.630;9.000;2023-04-06T03:59:58;9.43;;;4.90;;
5785;SDS011;2919;48.630;9.000;2023-04-06T04:02:23;7.67;;;4.60;;
5785;SDS011;2919;48.630;9.000;2023-04-06T04:04:49;11.10;;;4.80;;
5785;SDS011;2919;48.630;9.000;2023-04-06T04:07:15;8.57;;;4.03;;
5785;SDS011;2919;48.630;9.000;2023-04-06T04:09:40;12.63;;;3.90;;
5785;SDS011;2919;48.630;9.000;2023-04-06T04:12:06;6.57;;;4.00;;
5785;SDS011;2919;48.630;9.000;2023-04-06T04:14:32;6.63;;;4.50;;
5785;SDS011;2919;48.630;9.000;2023-04-06T04:16:57;12.40;;;4.90;;
5785;SDS011;2919;48.630;9.000;2023-04-06T04:19:24;8.10;;;4.50;;
5785;SDS011;2919;48.630;9.000;2023-04-06T04:21:49;9.30;;;4.97;;
5785;SDS011;2919;48.630;9.000;2023-04-06T04:24:15;17.63;;;6.80;;
5785;SDS011;2919;48.630;9.000;2023-04-06T04:26:41;18.80;;;7.50;;
5785;SDS011;2919;48.630;9.000;2023-04-06T04:29:07;19.57;;;7.63;;
5785;SDS011;2919;48.630;9.000;2023-04-06T04:31:32;13.23;;;6.23;;
5785;SDS011;2919;48.630;9.000;2023-04-06T04:33:59;14.73;;;5.40;;
5785;SDS011;2919;48.630;9.000;2023-04-06T04:36:25;12.67;;;5.03;;
5785;SDS011;2919;48.630;9.000;2023-04-06T04:38:51;12.57;;;3.73;;
5785;SDS011;2919;48.630;9.000;2023-04-06T04:41:17;7.57;;;4.07;;
5785;SDS011;2919;48.630;9.000;2023-04-06T04:43:43;10.83;;;4.50;;
5785;SDS011;2919;48.630;9.000;2023-04-06T04:46:09;5.10;;;3.20;;
5785;SDS011;2919;48.630;9.000;2023-04-06T04:48:35;12.17;;;4.70;;
5785;SDS011;2919;48.630;9.000;2023-04-06T04:51:01;11.83;;;4.00;;
5785;SDS011;2919;48.630;9.000;2023-04-06T04:53:27;7.50;;;3.43;;
5785;SDS011;2919;48.630;9.000;2023-04-06T04:55:52;6.40;;;4.00;;
5785;SDS011;2919;48.630;9.000;2023-04-06T04:58:18;11.43;;;3.87;;
5785;SDS011;2919;48.630;9.000;2023-04-06T05:00:45;5.87;;;4.07;;
5785;SDS011;2919;48.630;9.000;2023-04-06T05:03:14;9.83;;;4.70;;
5785;SDS011;2919;48.630;9.000;2023-04-06T05:05:49;10.17;;;4.40;;
5785;SDS011;2919;48.630;9.000;2023-04-06T05:08:15;10.60;;;5.30;;
5785;SDS011;2919;48.630;9.000;2023-04-06T05:10:41;6.13;;;4.00;;
5785;SDS011;2919;48.630;9.000;2023-04-06T05:13:07;22.20;;;4.67;;
5785;SDS011;2919;48.630;9.000;2023-04-06T05:15:33;11.20;;;4.63;;
5785;SDS011;2919;48.630;9.000;2023-04-06T05:18:06;9.00;;;4.80;;
5785;SDS011;2919;48.630;9.000;2023-04-06T05:20:32;12.00;;;3.87;;
5785;SDS011;2919;48.630;9.000;2023-04-06T05:22:59;9.37;;;4.33;;
5785;SDS011;2919;48.630;9.000;2023-04-06T05:25:25;7.77;;;3.80;;
5785;SDS011;2919;48.630;9.000;2023-04-06T05:27:51;8.07;;;4.63;;
5785;SDS011;2919;48.630;9.000;2023-04-06T05:30:17;13.80;;;4.70;;
5785;SDS011;2919;48.630;9.000;2023-04-06T05:32:43;8.57;;;4.83;;
5785;SDS011;2919;48.630;9.000;2023-04-06T05:35:09;8.43;;;4.80;;
5785;SDS011;2919;48.630;9.000;2023-04-06T05:37:36;16.87;;;7.60;;
5785;SDS011;2919;48.630;9.000;2023-04-06T05:40:02;30.83;;;10.90;;
5785;SDS011;2919;48.630;9.000;2023-04-06T05:42:35;40.47;;;14.83;;
5785;SDS011;2919;48.630;9.000;2023-04-06T05:45:06;27.80;;;12.37;;
5785;SDS011;2919;48.630;9.000;2023-04-06T05:47:32;25.10;;;11.00;;
5785;SDS011;2919;48.630;9.000;2023-04-06T05:49:58;37.60;;;10.93;;
5785;SDS011;2919;48.630;9.000;2023-04-06T05:52:23;19.53;;;8.00;;
5785;SDS011;2919;48.630;9.000;2023-04-06T05:54:49;10.07;;;6.60;;
5785;SDS011;2919;48.630;9.000;2023-04-06T05:57:16;20.47;;;9.60;;
5785;SDS011;2919;48.630;9.000;2023-04-06T05:59:42;22.43;;;7.90;;
5785;SDS011;2919;48.630;9.000;2023-04-06T06:02:08;15.67;;;7.37;;
5785;SDS011;2919;48.630;9.000;2023-04-06T06:04:33;15.83;;;8.00;;
5785;SDS011;2919;48.630;9.000;2023-04-06T06:06:59;24.40;;;8.43;;
5785;SDS011;2919;48.630;9.000;2023-04-06T06:09:25;31.63;;;7.33;;
5785;SDS011;2919;48.630;9.000;2023-04-06T06:11:51;15.57;;;6.93;;
5785;SDS011;2919;48.630;9.000;2023-04-06T06:14:17;13.80;;;6.20;;
5785;SDS011;2919;48.630;9.000;2023-04-06T06:16:42;13.47;;;7.37;;
5785;SDS011;2919;48.630;9.000;2023-04-06T06:19:08;10.40;;;5.43;;
5785;SDS011;2919;48.630;9.000;2023-04-06T06:21:33;12.67;;;6.50;;
5785;SDS011;2919;48.630;9.000;2023-04-06T06:23:59;12.70;;;5.70;;
5785;SDS011;2919;48.630;9.000;2023-04-06T06:26:25;12.77;;;6.60;;
5785;SDS011;2919;48.630;9.000;2023-04-06T06:28:51;15.93;;;7.50;;
5785;SDS011;2919;48.630;9.000;2023-04-06T06:31:16;23.40;;;7.70;;
5785;SDS011;2919;48.630;9.000;2023-04-06T06:33:45;9.17;;;5.13;;
5785;SDS011;2919;48.630;9.000;2023-04-06T06:36:11;10.70;;;5.77;;
5785;SDS011;2919;48.630;9.000;2023-04-06T06:38:36;11.53;;;5.57;;
5785;SDS011;2919;48.630;9.000;2023-04-06T06:41:03;14.73;;;6.43;;
5785;SDS011;2919;48.630;9.000;2023-04-06T06:43:28;13.70;;;7.03;;
5785;SDS011;2919;48.630;9.000;2023-04-06T06:45:54;13.90;;;5.37;;
5785;SDS011;2919;48.630;9.000;2023-04-06T06:48:20;8.80;;;6.13;;
5785;SDS011;2919;48.630;9.000;2023-04-06T06:50:47;15.50;;;6.10;;
5785;SDS011;2919;48.630;9.000;2023-04-06T06:53:13;10.97;;;6.10;;
5785;SDS011;2919;48.630;9.000;2023-04-06T06:55:39;13.30;;;6.00;;
5785;SDS011;2919;48.630;9.000;2023-04-06T06:58:05;14.40;;;6.07;;
5785;SDS011;2919;48.630;9.000;2023-04-06T07:00:31;12.90;;;5.67;;
5785;SDS011;2919;48.630;9.000;2023-04-06T07:02:57;12.63;;;4.60;;
5785;SDS011;2919;48.630;9.000;2023-04-06T07:05:23;8.13;;;4.07;;
5785;SDS011;2919;48.630;9.000;2023-04-06T07:07:49;7.93;;;4.00;;
5785;SDS011;2919;48.630;9.000;2023-04-06T07:10:14;14.90;;;4.87;;
5785;SDS011;2919;48.630;9.000;2023-04-06T07:12:40;9.80;;;4.77;;
5785;SDS011;2919;48.630;9.000;2023-04-06T07:15:06;9.33;;;4.77;;
5785;SDS011;2919;48.630;9.000;2023-04-06T07:17:32;9.43;;;4.10;;
5785;SDS011;2919;48.630;9.000;2023-04-06T07:19:57;7.07;;;4.00;;
5785;SDS011;2919;48.630;9.000;2023-04-06T07:22:23;6.93;;;3.80;;
5785;SDS011;2919;48.630;9.000;2023-04-06T07:24:49;9.87;;;5.00;;
5785;SDS011;2919;48.630;9.000;2023-04-06T07:27:15;8.13;;;3.90;;
5785;SDS011;2919;48.630;9.000;2023-04-06T07:29:41;6.43;;;3.83;;
5785;SDS011;2919;48.630;9.000;2023-04-06T07:32:07;16.10;;;4.57;;
5785;SDS011;2919;48.630;9.000;2023-04-06T07:34:32;6.00;;;3.50;;
5785;SDS011;2919;48.630;9.000;2023-04-06T07:36:58;6.63;;;3.43;;
5785;SDS011;2919;48.630;9.000;2023-04-06T07:39:25;10.30;;;3.50;;
5785;SDS011;2919;48.630;9.000;2023-04-06T07:41:51;7.87;;;3.53;;
5785;SDS011;2919;48.630;9.000;2023-04-06T07:44:17;10.70;;;3.23;;
5785;SDS011;2919;48.630;9.000;2023-04-06T07:46:43;5.70;;;3.47;;
5785;SDS011;2919;48.630;9.000;2023-04-06T07:49:08;4.00;;;2.80;;
5785;SDS011;2919;48.630;9.000;2023-04-06T07:51:37;9.10;;;4.30;;
5785;SDS011;2919;48.630;9.000;2023-04-06T07:54:04;12.23;;;3.77;;
5785;SDS011;2919;48.630;9.000;2023-04-06T07:56:30;6.97;;;3.13;;
5785;SDS011;2919;48.630;9.000;2023-04-06T07:58:55;6.30;;;3.10;;
5785;SDS011;2919;48.630;9.000;2023-04-06T08:01:23;5.30;;;3.30;;
5785;SDS011;2919;48.630;9.000;2023-04-06T08:03:48;5.80;;;4.00;;
5785;SDS011;2919;48.630;9.000;2023-04-06T08:06:15;7.27;;;3.30;;
5785;SDS011;2919;48.630;9.000;2023-04-06T08:08:41;7.83;;;4.17;;
5785;SDS011;2919;48.630;9.000;2023-04-06T08:11:07;8.90;;;3.50;;
5785;SDS011;2919;48.630;9.000;2023-04-06T08:13:33;9.23;;;3.47;;
5785;SDS011;2919;48.630;9.000;2023-04-06T08:16:00;5.20;;;2.93;;
5785;SDS011;2919;48.630;9.000;2023-04-06T08:18:26;7.20;;;3.23;;
5785;SDS011;2919;48.630;9.000;2023-04-06T08:20:51;10.63;;;3.17;;
5785;SDS011;2919;48.630;9.000;2023-04-06T08:23:17;7.17;;;4.17;;
5785;SDS011;2919;48.630;9.000;2023-04-06T08:25:43;6.27;;;3.43;;
5785;SDS011;2919;48.630;9.000;2023-04-06T08:28:08;7.20;;;4.00;;
5785;SDS011;2919;48.630;9.000;2023-04-06T08:30:34;9.93;;;4.07;;
5785;SDS011;2919;48.630;9.000;2023-04-06T08:33:00;5.63;;;3.43;;
5785;SDS011;2919;48.630;9.000;2023-04-06T08:35:26;7.83;;;3.97;;
5785;SDS011;2919;48.630;9.000;2023-04-06T08:37:52;7.60;;;3.80;;
5785;SDS011;2919;48.630;9.000;2023-04-06T08:40:18;7.40;;;3.60;;
5785;SDS011;2919;48.630;9.000;2023-04-06T08:42:44;3.60;;;2.70;;
5785;SDS011;2919;48.630;9.000;2023-04-06T08:45:17;9.73;;;4.90;;
5785;SDS011;2919;48.630;9.000;2023-04-06T08:47:46;6.50;;;4.17;;
5785;SDS011;2919;48.630;9.000;2023-04-06T08:50:18;13.10;;;4.40;;
5785;SDS011;2919;48.630;9.000;2023-04-06T08:52:47;9.50;;;3.83;;
5785;SDS011;2919;48.630;9.000;2023-04-06T08:55:14;7.20;;;3.90;;
5785;SDS011;2919;48.630;9.000;2023-04-06T08:57:40;6.53;;;3.83;;
5785;SDS011;2919;48.630;9.000;2023-04-06T09:00:07;6.13;;;3.13;;
5785;SDS011;2919;48.630;9.000;2023-04-06T09:02:36;7.17;;;4.10;;
5785;SDS011;2919;48.630;9.000;2023-04-06T09:05:06;5.77;;;3.33;;
5785;SDS011;2919;48.630;9.000;2023-04-06T09:07:33;11.03;;;4.00;;
5785;SDS011;2919;48.630;9.000;2023-04-06T09:10:00;7.80;;;3.50;;
5785;SDS011;2919;48.630;9.000;2023-04-06T09:12:26;7.37;;;4.30;;
5785;SDS011;2919;48.630;9.000;2023-04-06T09:14:53;12.70;;;3.53;;
5785;SDS011;2919;48.630;9.000;2023-04-06T09:17:19;6.30;;;3.73;;
5785;SDS011;2919;48.630;9.000;2023-04-06T09:19:49;6.60;;;3.17;;
5785;SDS011;2919;48.630;9.000;2023-04-06T09:22:15;4.13;;;2.40;;
5785;SDS011;2919;48.630;9.000;2023-04-06T09:24:51;6.23;;;3.40;;
5785;SDS011;2919;48.630;9.000;2023-04-06T09:27:18;7.13;;;4.00;;
5785;SDS011;2919;48.630;9.000;2023-04-06T09:30:08;6.57;;;3.50;;
5785;SDS011;2919;48.630;9.000;2023-04-06T09:32:47;8.47;;;4.47;;
5785;SDS011;2919;48.630;9.000;2023-04-06T09:35:14;11.93;;;3.73;;
5785;SDS011;2919;48.630;9.000;2023-04-06T09:37:41;5.63;;;3.43;;
5785;SDS011;2919;48.630;9.000;2023-04-06T09:40:09;4.43;;;2.47;;
5785;SDS011;2919;48.630;9.000;2023-04-06T09:42:35;9.93;;;4.17;;
5785;SDS011;2919;48.630;9.000;2023-04-06T09:45:02;7.80;;;3.20;;
5785;SDS011;2919;48.630;9.000;2023-04-06T09:47:28;7.23;;;3.17;;
5785;SDS011;2919;48.630;9.000;2023-04-06T09:49:58;8.17;;;3.10;;
5785;SDS011;2919;48.630;9.000;2023-04-06T09:52:26;6.30;;;3.13;;
5785;SDS011;2919;48.630;9.000;2023-04-06T09:55:03;5.43;;;2.70;;
5785;SDS011;2919;48.630;9.000;2023-04-06T10:00:08;8.43;;;3.27;;
5785;SDS011;2919;48.630;9.000;2023-04-06T10:02:51;9.10;;;2.90;;
5785;SDS011;2919;48.630;9.000;2023-04-06T10:08:06;7.30;;;3.03;;
5785;SDS011;2919;48.630;9.000;2023-04-06T10:10:35;4.50;;;2.20;;
5785;SDS011;2919;48.630;9.000;2023-04-06T10:13:01;6.23;;;3.00;;
5785;SDS011;2919;48.630;9.000;2023-04-06T10:15:28;5.53;;;2.70;;
5785;SDS011;2919;48.630;9.000;2023-04-06T10:17:56;5.53;;;2.70;;
5785;SDS011;2919;48.630;9.000;2023-04-06T10:20:24;7.13;;;3.03;;
5785;SDS011;2919;48.630;9.000;2023-04-06T10:25:33;18.60;;;2.90;;
5785;SDS011;2919;48.630;9.000;2023-04-06T10:28:06;7.03;;;2.70;;
5785;SDS011;2919;48.630;9.000;2023-04-06T10:30:34;3.97;;;2.43;;
5785;SDS011;2919;48.630;9.000;2023-04-06T10:33:00;8.70;;;3.80;;
5785;SDS011;2919;48.630;9.000;2023-04-06T10:35:37;7.40;;;2.93;;
5785;SDS011;2919;48.630;9.000;2023-04-06T10:38:03;6.50;;;3.40;;
5785;SDS011;2919;48.630;9.000;2023-04-06T10:40:30;6.83;;;2.97;;
5785;SDS011;2919;48.630;9.000;2023-04-06T10:43:06;6.27;;;3.40;;
5785;SDS011;2919;48.630;9.000;2023-04-06T10:45:33;5.87;;;2.93;;
5785;SDS011;2919;48.630;9.000;2023-04-06T10:48:00;5.07;;;2.87;;
5785;SDS011;2919;48.630;9.000;2023-04-06T10:50:37;6.67;;;2.70;;
5785;SDS011;2919;48.630;9.000;2023-04-06T10:53:05;6.43;;;3.10;;
5785;SDS011;2919;48.630;9.000;2023-04-06T10:55:31;4.80;;;2.30;;
5785;SDS011;2919;48.630;9.000;2023-04-06T10:57:57;12.30;;;4.07;;
5785;SDS011;2919;48.630;9.000;2023-04-06T11:00:22;7.37;;;3.27;;
5785;SDS011;2919;48.630;9.000;2023-04-06T11:02:48;5.10;;;2.77;;
5785;SDS011;2919;48.630;9.000;2023-04-06T11:05:14;5.00;;;2.70;;
5785;SDS011;2919;48.630;9.000;2023-04-06T11:07:40;8.13;;;3.37;;
5785;SDS011;2919;48.630;9.000;2023-04-06T11:10:09;3.60;;;2.33;;
5785;SDS011;2919;48.630;9.000;2023-04-06T11:12:35;6.23;;;3.23;;
5785;SDS011;2919;48.630;9.000;2023-04-06T11:15:01;5.23;;;2.67;;
5785;SDS011;2919;48.630;9.000;2023-04-06T11:17:35;5.90;;;3.13;;
5785;SDS011;2919;48.630;9.000;2023-04-06T11:20:02;5.20;;;3.07;;
5785;SDS011;2919;48.630;9.000;2023-04-06T11:22:30;5.60;;;2.97;;
5785;SDS011;2919;48.630;9.000;2023-04-06T11:25:06;13.77;;;4.43;;
5785;SDS011;2919;48.630;9.000;2023-04-06T11:27:33;6.73;;;3.33;;
5785;SDS011;2919;48.630;9.000;2023-04-06T11:30:00;5.90;;;3.30;;
5785;SDS011;2919;48.630;9.000;2023-04-06T11:32:26;3.70;;;2.43;;
5785;SDS011;2919;48.630;9.000;2023-04-06T11:34:52;8.50;;;3.47;;
5785;SDS011;2919;48.630;9.000;2023-04-06T11:37:18;8.27;;;3.10;;
5785;SDS011;2919;48.630;9.000;2023-04-06T11:42:22;9.23;;;3.53;;
5785;SDS011;2919;48.630;9.000;2023-04-06T11:44:58;17.87;;;4.10;;
5785;SDS011;2919;48.630;9.000;2023-04-06T11:50:10;10.13;;;4.03;;
5785;SDS011;2919;48.630;9.000;2023-04-06T11:52:38;6.70;;;2.97;;
5785;SDS011;2919;48.630;9.000;2023-04-06T11:55:18;5.23;;;3.20;;
5785;SDS011;2919;48.630;9.000;2023-04-06T11:57:44;9.20;;;4.97;;
5785;SDS011;2919;48.630;9.000;2023-04-06T12:00:14;9.17;;;4.20;;
5785;SDS011;2919;48.630;9.000;2023-04-06T12:02:44;6.50;;;3.23;;
5785;SDS011;2919;48.630;9.000;2023-04-06T12:05:11;8.07;;;2.90;;
5785;SDS011;2919;48.630;9.000;2023-04-06T12:07:36;3.70;;;2.20;;
5785;SDS011;2919;48.630;9.000;2023-04-06T12:10:02;5.23;;;2.93;;
5785;SDS011;2919;48.630;9.000;2023-04-06T12:12:29;8.37;;;2.90;;
5785;SDS011;2919;48.630;9.000;2023-04-06T12:14:55;10.67;;;3.63;;
5785;SDS011;2919;48.630;9.000;2023-04-06T12:17:21;5.43;;;2.93;;
5785;SDS011;2919;48.630;9.000;2023-04-06T12:19:46;7.03;;;2.87;;
5785;SDS011;2919;48.630;9.000;2023-04-06T12:22:12;5.83;;;2.70;;
5785;SDS011;2919;48.630;9.000;2023-04-06T12:24:38;6.50;;;2.40;;
5785;SDS011;2919;48.630;9.000;2023-04-06T12:27:04;12.70;;;2.40;;
5785;SDS011;2919;48.630;9.000;2023-04-06T12:29:30;7.23;;;2.50;;
5785;SDS011;2919;48.630;9.000;2023-04-06T12:31:55;5.37;;;3.00;;
5785;SDS011;2919;48.630;9.000;2023-04-06T12:34:22;4.93;;;2.60;;
5785;SDS011;2919;48.630;9.000;2023-04-06T12:36:48;10.63;;;2.60;;
5785;SDS011;2919;48.630;9.000;2023-04-06T12:39:13;14.17;;;2.73;;
5785;SDS011;2919;48.630;9.000;2023-04-06T12:41:39;5.30;;;2.50;;
5785;SDS011;2919;48.630;9.000;2023-04-06T12:44:07;10.80;;;3.30;;
5785;SDS011;2919;48.630;9.000;2023-04-06T12:46:33;6.13;;;3.20;;
5785;SDS011;2919;48.630;9.000;2023-04-06T12:49:00;3.27;;;2.30;;
5785;SDS011;2919;48.630;9.000;2023-04-06T12:51:29;9.93;;;4.20;;
5785;SDS011;2919;48.630;9.000;2023-04-06T12:53:56;7.47;;;2.50;;
5785;SDS011;2919;48.630;9.000;2023-04-06T12:56:22;9.73;;;2.97;;
5785;SDS011;2919;48.630;9.000;2023-04-06T12:58:48;7.10;;;2.97;;
5785;SDS011;2919;48.630;9.000;2023-04-06T13:01:15;7.57;;;3.00;;
5785;SDS011;2919;48.630;9.000;2023-04-06T13:03:41;4.50;;;2.60;;
5785;SDS011;2919;48.630;9.000;2023-04-06T13:06:07;3.53;;;2.10;;
5785;SDS011;2919;48.630;9.000;2023-04-06T13:08:33;6.23;;;2.57;;
5785;SDS011;2919;48.630;9.000;2023-04-06T13:11:00;9.40;;;2.87;;
5785;SDS011;2919;48.630;9.000;2023-04-06T13:13:26;7.17;;;2.67;;
5785;SDS011;2919;48.630;9.000;2023-04-06T13:15:54;4.47;;;2.07;;
5785;SDS011;2919;48.630;9.000;2023-04-06T13:18:20;4.07;;;2.50;;
5785;SDS011;2919;48.630;9.000;2023-04-06T13:20:47;5.20;;;2.80;;
5785;SDS011;2919;48.630;9.000;2023-04-06T13:23:14;7.90;;;3.37;;
5785;SDS011;2919;48.630;9.000;2023-04-06T13:25:39;4.40;;;2.50;;
5785;SDS011;2919;48.630;9.000;2023-04-06T13:28:05;6.27;;;2.93;;
5785;SDS011;2919;48.630;9.000;2023-04-06T13:30:31;7.87;;;3.10;;
5785;SDS011;2919;48.630;9.000;2023-04-06T13:32:56;4.23;;;2.37;;
5785;SDS011;2919;48.630;9.000;2023-04-06T13:35:22;5.63;;;2.60;;
5785;SDS011;2919;48.630;9.000;2023-04-06T13:37:48;3.50;;;2.50;;
5785;SDS011;2919;48.630;9.000;2023-04-06T13:40:16;5.80;;;2.93;;
5785;SDS011;2919;48.630;9.000;2023-04-06T13:42:42;5.50;;;2.43;;
5785;SDS011;2919;48.630;9.000;2023-04-06T13:45:10;5.20;;;2.40;;
5785;SDS011;2919;48.630;9.000;2023-04-06T13:47:36;5.37;;;2.57;;
5785;SDS011;2919;48.630;9.000;2023-04-06T13:50:01;3.33;;;2.20;;
5785;SDS011;2919;48.630;9.000;2023-04-06T13:52:28;5.03;;;3.13;;
5785;SDS011;2919;48.630;9.000;2023-04-06T13:54:54;6.43;;;2.73;;
5785;SDS011;2919;48.630;9.000;2023-04-06T13:57:20;6.93;;;2.93;;
5785;SDS011;2919;48.630;9.000;2023-04-06T13:59:45;5.27;;;2.67;;
5785;SDS011;2919;48.630;9.000;2023-04-06T14:02:11;4.27;;;2.80;;
5785;SDS011;2919;48.630;9.000;2023-04-06T14:04:36;5.37;;;2.63;;
5785;SDS011;2919;48.630;9.000;2023-04-06T14:07:03;7.93;;;2.67;;
5785;SDS011;2919;48.630;9.000;2023-04-06T14:09:29;3.37;;;2.10;;
5785;SDS011;2919;48.630;9.000;2023-04-06T14:11:55;5.97;;;2.53;;
5785;SDS011;2919;48.630;9.000;2023-04-06T14:14:22;5.10;;;2.13;;
5785;SDS011;2919;48.630;9.000;2023-04-06T14:16:48;8.57;;;3.27;;
5785;SDS011;2919;48.630;9.000;2023-04-06T14:19:14;7.37;;;2.60;;
5785;SDS011;2919;48.630;9.000;2023-04-06T14:21:42;4.60;;;2.40;;
5785;SDS011;2919;48.630;9.000;2023-04-06T14:24:09;5.17;;;2.97;;
5785;SDS011;2919;48.630;9.000;2023-04-06T14:26:35;6.23;;;2.50;;
5785;SDS011;2919;48.630;9.000;2023-04-06T14:29:02;8.17;;;3.07;;
5785;SDS011;2919;48.630;9.000;2023-04-06T14:31:29;9.00;;;2.80;;
5785;SDS011;2919;48.630;9.000;2023-04-06T14:33:55;5.10;;;2.97;;
5785;SDS011;2919;48.630;9.000;2023-04-06T14:36:21;5.40;;;3.07;;
5785;SDS011;2919;48.630;9.000;2023-04-06T14:38:46;8.57;;;3.37;;
5785;SDS011;2919;48.630;9.000;2023-04-06T14:41:16;11.97;;;3.83;;
5785;SDS011;2919;48.630;9.000;2023-04-06T14:43:46;10.47;;;3.93;;
5785;SDS011;2919;48.630;9.000;2023-04-06T14:46:12;6.27;;;2.70;;
5785;SDS011;2919;48.630;9.000;2023-04-06T14:48:38;5.57;;;3.03;;
5785;SDS011;2919;48.630;9.000;2023-04-06T14:51:03;4.80;;;2.40;;
5785;SDS011;2919;48.630;9.000;2023-04-06T14:53:29;5.73;;;3.20;;
5785;SDS011;2919;48.630;9.000;2023-04-06T14:55:55;7.47;;;2.97;;
5785;SDS011;2919;48.630;9.000;2023-04-06T14:58:21;4.50;;;2.47;;
5785;SDS011;2919;48.630;9.000;2023-04-06T15:00:48;5.27;;;2.63;;
5785;SDS011;2919;48.630;9.000;2023-04-06T15:03:14;5.33;;;3.20;;
5785;SDS011;2919;48.630;9.000;2023-04-06T15:05:41;6.50;;;3.50;;
5785;SDS011;2919;48.630;9.000;2023-04-06T15:08:07;5.53;;;2.77;;
5785;SDS011;2919;48.630;9.000;2023-04-06T15:10:34;4.80;;;2.80;;
5785;SDS011;2919;48.630;9.000;2023-04-06T15:13:00;6.70;;;3.77;;
5785;SDS011;2919;48.630;9.000;2023-04-06T15:15:26;11.03;;;3.27;;
5785;SDS011;2919;48.630;9.000;2023-04-06T15:17:52;6.03;;;3.17;;
5785;SDS011;2919;48.630;9.000;2023-04-06T15:20:18;5.10;;;2.50;;
5785;SDS011;2919;48.630;9.000;2023-04-06T15:22:44;10.03;;;3.43;;